createdAt,value
2023-10-20T00:00:15.803Z,20.20
2023-10-20T00:02:44.171Z,20.67
2023-10-20T00:05:15.217Z,20.47
2023-10-20T00:07:43.354Z,20.87
2023-10-20T00:10:12.820Z,21.57
2023-10-20T00:12:41.378Z,19.93
2023-10-20T00:15:11.056Z,18.73
2023-10-20T00:17:39.035Z,19.77
2023-10-20T00:20:07.532Z,20.57
2023-10-20T00:22:36.926Z,19.23
2023-10-20T00:25:05.059Z,19.20
2023-10-20T00:27:33.057Z,18.53
2023-10-20T00:30:00.890Z,18.07
2023-10-20T00:32:28.838Z,18.90
2023-10-20T00:34:56.966Z,18.30
2023-10-20T00:37:25.228Z,18.43
2023-10-20T00:39:54.841Z,17.50
2023-10-20T00:42:22.755Z,18.63
2023-10-20T00:44:50.661Z,17.67
2023-10-20T00:47:19.463Z,16.90
2023-10-20T00:49:48.165Z,19.53
2023-10-20T00:52:16.419Z,17.60
2023-10-20T00:54:47.570Z,18.73
2023-10-20T00:57:17.524Z,17.63
2023-10-20T00:59:45.830Z,17.87
2023-10-20T01:02:14.461Z,18.43
2023-10-20T01:04:42.611Z,18.17
2023-10-20T01:07:10.492Z,18.10
2023-10-20T01:09:38.478Z,18.80
2023-10-20T01:12:06.840Z,18.50
2023-10-20T01:14:36.870Z,18.63
2023-10-20T01:17:04.870Z,19.23
2023-10-20T01:19:34.697Z,18.67
2023-10-20T01:22:02.679Z,18.80
2023-10-20T01:24:32.867Z,19.00
2023-10-20T01:27:00.910Z,19.10
2023-10-20T01:29:28.912Z,19.10
2023-10-20T01:31:56.748Z,19.60
2023-10-20T01:34:24.667Z,18.97
2023-10-20T01:36:52.549Z,20.13
2023-10-20T01:39:20.457Z,19.00
2023-10-20T01:41:49.716Z,19.00
2023-10-20T01:44:17.633Z,20.17
2023-10-20T01:46:50.698Z,18.53
2023-10-20T01:49:19.553Z,19.33
2023-10-20T01:51:47.557Z,17.87
2023-10-20T01:54:15.595Z,18.73
2023-10-20T01:56:45.123Z,19.13
2023-10-20T01:59:14.438Z,18.63
2023-10-20T02:01:42.402Z,18.23
2023-10-20T02:04:10.335Z,18.00
2023-10-20T02:06:38.292Z,17.63
2023-10-20T02:09:07.324Z,19.13
2023-10-20T02:11:35.270Z,20.40
2023-10-20T02:14:04.475Z,21.83
2023-10-20T02:16:33.983Z,19.60
2023-10-20T02:19:01.985Z,21.23
2023-10-20T02:21:30.339Z,19.70
2023-10-20T02:23:58.557Z,20.60
2023-10-20T02:26:26.455Z,20.30
2023-10-20T02:28:54.433Z,20.60
2023-10-20T02:31:22.505Z,21.67
2023-10-20T02:33:51.853Z,19.90
2023-10-20T02:36:20.114Z,22.43
2023-10-20T02:38:48.646Z,22.47
2023-10-20T02:41:17.267Z,22.00
2023-10-20T02:43:45.150Z,21.10
2023-10-20T02:46:13.811Z,20.87
2023-10-20T02:48:42.001Z,19.50
2023-10-20T02:51:11.753Z,20.10
2023-10-20T02:53:40.832Z,18.37
2023-10-20T02:56:13.667Z,18.63
2023-10-20T02:58:41.685Z,19.43
2023-10-20T03:01:10.750Z,19.57
2023-10-20T03:03:39.387Z,19.33
2023-10-20T03:06:08.188Z,20.43
2023-10-20T03:08:38.873Z,19.70
2023-10-20T03:11:07.440Z,19.13
2023-10-20T03:13:35.662Z,19.27
2023-10-20T03:16:03.642Z,19.73
2023-10-20T03:18:31.696Z,18.90
2023-10-20T03:21:02.044Z,18.37
2023-10-20T03:23:30.225Z,20.53
2023-10-20T03:25:59.678Z,18.80
2023-10-20T03:28:28.165Z,18.60
2023-10-20T03:30:56.251Z,18.23
2023-10-20T03:33:24.358Z,17.47
2023-10-20T03:36:01.196Z,19.10
2023-10-20T03:38:29.876Z,19.60
2023-10-20T03:41:07.867Z,18.00
2023-10-20T03:43:36.716Z,16.20
2023-10-20T03:46:05.956Z,17.63
2023-10-20T03:48:36.008Z,16.23
2023-10-20T03:51:06.585Z,16.80
2023-10-20T03:53:42.653Z,17.47
2023-10-20T03:56:12.157Z,16.77
2023-10-20T03:58:43.510Z,16.63
2023-10-20T04:01:12.420Z,20.50
2023-10-20T04:03:41.628Z,18.03
2023-10-20T04:06:10.336Z,18.10
2023-10-20T04:08:38.293Z,18.40
2023-10-20T04:11:06.200Z,17.40
2023-10-20T04:13:36.608Z,17.50
2023-10-20T04:16:13.684Z,17.70
2023-10-20T04:18:42.517Z,17.60
2023-10-20T04:21:12.589Z,17.73
2023-10-20T04:23:40.704Z,16.93
2023-10-20T04:26:17.802Z,17.80
2023-10-20T04:28:49.139Z,18.23
2023-10-20T04:31:38.121Z,19.20
2023-10-20T04:34:24.137Z,16.93
2023-10-20T04:37:09.571Z,17.53
2023-10-20T04:40:06.542Z,17.13
2023-10-20T04:42:56.115Z,16.97
2023-10-20T04:46:04.016Z,17.00
2023-10-20T04:48:48.816Z,17.97
2023-10-20T04:51:25.628Z,17.47
2023-10-20T04:53:55.901Z,17.63
2023-10-20T04:56:34.258Z,18.90
2023-10-20T04:59:06.562Z,17.00
2023-10-20T05:01:44.448Z,17.47
2023-10-20T05:04:17.329Z,18.50
2023-10-20T05:06:46.103Z,20.80
2023-10-20T05:09:17.658Z,21.17
2023-10-20T05:11:47.868Z,21.63
2023-10-20T05:14:15.720Z,20.43
2023-10-20T05:16:45.015Z,18.40
2023-10-20T05:19:13.370Z,17.93
2023-10-20T05:21:41.369Z,22.17
2023-10-20T05:24:09.853Z,18.90
2023-10-20T05:26:37.753Z,18.07
2023-10-20T05:29:05.682Z,18.13
2023-10-20T05:31:33.636Z,18.40
2023-10-20T05:34:03.447Z,21.00
2023-10-20T05:36:31.367Z,17.90
2023-10-20T05:38:59.302Z,18.70
2023-10-20T05:41:27.534Z,18.87
2023-10-20T05:43:56.050Z,20.37
2023-10-20T05:46:24.041Z,18.63
2023-10-20T05:48:52.589Z,19.70
2023-10-20T05:51:22.835Z,17.37
2023-10-20T05:53:50.855Z,19.37
2023-10-20T05:56:18.824Z,18.30
2023-10-20T05:58:46.757Z,18.00
2023-10-20T06:01:14.776Z,20.37
2023-10-20T06:03:42.880Z,19.67
2023-10-20T06:06:11.485Z,19.57
2023-10-20T06:08:41.082Z,18.20
2023-10-20T06:11:09.041Z,19.97
2023-10-20T06:13:37.804Z,23.17
2023-10-20T06:16:09.767Z,23.10
2023-10-20T06:18:38.322Z,23.90
2023-10-20T06:21:06.609Z,17.97
2023-10-20T06:23:34.608Z,19.90
2023-10-20T06:26:03.955Z,21.77
2023-10-20T06:28:32.298Z,19.63
2023-10-20T06:31:02.318Z,20.97
2023-10-20T06:33:34.357Z,21.17
2023-10-20T06:36:11.612Z,21.43
2023-10-20T06:38:46.456Z,23.23
2023-10-20T06:41:16.167Z,23.33
2023-10-20T06:43:44.113Z,19.90
2023-10-20T06:46:12.106Z,20.37
2023-10-20T06:48:40.028Z,20.27
2023-10-20T06:51:08.013Z,21.07
2023-10-20T06:53:36.617Z,19.60
2023-10-20T06:56:15.128Z,20.53
2023-10-20T06:58:46.048Z,22.47
2023-10-20T07:01:14.282Z,20.47
2023-10-20T07:03:42.941Z,20.33
2023-10-20T07:06:12.551Z,21.50
2023-10-20T07:08:41.076Z,19.40
2023-10-20T07:11:09.238Z,23.07
2023-10-20T07:13:37.115Z,23.90
2023-10-20T07:16:06.967Z,21.07
2023-10-20T07:18:35.043Z,21.40
2023-10-20T07:21:04.419Z,22.37
2023-10-20T07:23:33.426Z,22.57
2023-10-20T07:26:01.381Z,20.43
2023-10-20T07:28:29.285Z,23.60
2023-10-20T07:30:57.534Z,21.03
2023-10-20T07:33:27.054Z,20.03
2023-10-20T07:35:54.955Z,19.23
2023-10-20T07:38:22.919Z,21.07
2023-10-20T07:40:50.838Z,26.37
2023-10-20T07:43:18.732Z,20.43
2023-10-20T07:45:46.625Z,23.07
2023-10-20T07:48:15.416Z,19.07
2023-10-20T07:50:46.227Z,24.47
2023-10-20T07:53:15.290Z,20.67
2023-10-20T07:55:43.402Z,22.47
2023-10-20T07:58:11.326Z,19.13
2023-10-20T08:00:39.196Z,21.07
2023-10-20T08:03:07.697Z,22.47
2023-10-20T08:05:37.320Z,21.93
2023-10-20T08:08:07.794Z,20.53
2023-10-20T08:10:35.898Z,20.93
2023-10-20T08:13:04.140Z,20.50
2023-10-20T08:15:32.079Z,19.60
2023-10-20T08:18:00.113Z,19.43
2023-10-20T08:20:28.047Z,20.50
2023-10-20T08:22:55.925Z,20.27
2023-10-20T08:25:25.171Z,19.47
2023-10-20T08:27:53.001Z,18.17
2023-10-20T08:30:21.984Z,20.43
2023-10-20T08:32:50.205Z,19.43
2023-10-20T08:35:18.345Z,17.03
2023-10-20T08:37:46.291Z,19.00
2023-10-20T08:40:14.663Z,18.03
2023-10-20T08:42:44.929Z,20.90
2023-10-20T08:45:15.965Z,21.17
2023-10-20T08:47:44.280Z,18.43
2023-10-20T08:50:17.554Z,19.23
2023-10-20T08:52:46.443Z,16.30
2023-10-20T08:55:14.750Z,18.77
2023-10-20T08:57:44.299Z,19.80
2023-10-20T09:00:21.563Z,19.73
2023-10-20T09:02:51.557Z,19.63
2023-10-20T09:05:23.726Z,21.83
2023-10-20T09:07:55.965Z,20.57
2023-10-20T09:10:23.978Z,20.23
2023-10-20T09:12:53.262Z,19.37
2023-10-20T09:15:22.384Z,18.20
2023-10-20T09:17:55.482Z,21.60
2023-10-20T09:20:24.899Z,22.20
2023-10-20T09:22:53.380Z,17.80
2023-10-20T09:25:21.310Z,18.10
2023-10-20T09:27:49.378Z,20.70
2023-10-20T09:30:19.513Z,17.60
2023-10-20T09:32:48.944Z,16.07
2023-10-20T09:35:16.928Z,17.90
2023-10-20T09:37:45.254Z,17.37
2023-10-20T09:40:13.627Z,20.17
2023-10-20T09:42:48.036Z,21.07
2023-10-20T09:45:18.480Z,17.97
2023-10-20T09:47:48.256Z,16.23
2023-10-20T09:50:19.543Z,15.97
2023-10-20T09:52:48.124Z,18.77
2023-10-20T09:55:16.303Z,18.27
2023-10-20T09:57:44.288Z,18.30
2023-10-20T10:00:13.994Z,21.40
2023-10-20T10:02:43.360Z,20.93
2023-10-20T10:05:11.791Z,18.13
2023-10-20T10:07:39.903Z,19.33
2023-10-20T10:10:09.249Z,17.40
2023-10-20T10:12:38.435Z,17.53
2023-10-20T10:15:09.245Z,16.27
2023-10-20T10:17:46.750Z,17.23
2023-10-20T10:20:21.707Z,17.57
2023-10-20T10:22:49.616Z,18.40
2023-10-20T10:25:18.283Z,17.37
2023-10-20T10:27:46.210Z,19.30
2023-10-20T10:30:17.065Z,19.30
2023-10-20T10:32:48.946Z,18.60
2023-10-20T10:35:18.502Z,21.67
2023-10-20T10:37:46.470Z,18.63
2023-10-20T10:40:19.673Z,18.30
2023-10-20T10:42:49.669Z,16.67
2023-10-20T10:45:23.063Z,19.30
2023-10-20T10:47:54.494Z,16.70
2023-10-20T10:50:23.289Z,20.10
2023-10-20T10:52:53.007Z,17.70
2023-10-20T10:55:21.767Z,17.50
2023-10-20T10:57:49.923Z,22.63
2023-10-20T11:00:18.185Z,19.40
2023-10-20T11:02:46.710Z,23.23
2023-10-20T11:05:19.072Z,27.50
2023-10-20T11:08:05.057Z,22.43
2023-10-20T11:10:35.996Z,21.03
2023-10-20T11:13:07.808Z,25.83
2023-10-20T11:15:36.390Z,25.83
2023-10-20T11:18:05.845Z,26.07
2023-10-20T11:20:37.668Z,26.50
2023-10-20T11:23:08.473Z,28.27
2023-10-20T11:25:37.648Z,23.87
2023-10-20T11:28:07.193Z,25.10
2023-10-20T11:30:38.757Z,25.80
2023-10-20T11:33:07.248Z,28.80
2023-10-20T11:35:36.773Z,27.67
2023-10-20T11:38:06.755Z,27.43
2023-10-20T11:40:34.856Z,28.53
2023-10-20T11:43:02.780Z,26.23
2023-10-20T11:45:31.034Z,25.70
2023-10-20T11:47:59.625Z,27.57
2023-10-20T11:50:27.698Z,31.40
2023-10-20T11:52:57.020Z,28.63
2023-10-20T11:55:25.406Z,33.20
2023-10-20T11:57:53.600Z,27.27
2023-10-20T12:00:25.434Z,33.73
2023-10-20T12:02:53.336Z,29.03
2023-10-20T12:05:22.670Z,27.90
2023-10-20T12:07:50.724Z,25.20
2023-10-20T12:10:20.047Z,28.37
2023-10-20T12:12:47.920Z,28.63
2023-10-20T12:15:15.954Z,31.57
2023-10-20T12:17:43.818Z,31.40
2023-10-20T12:20:14.939Z,32.80
2023-10-20T12:22:43.076Z,28.00
2023-10-20T12:25:11.199Z,26.93
2023-10-20T12:27:40.801Z,27.67
2023-10-20T12:30:12.118Z,28.50
2023-10-20T12:32:40.172Z,26.03
2023-10-20T12:35:08.670Z,30.50
2023-10-20T12:37:36.831Z,32.07
2023-10-20T12:40:05.164Z,31.43
2023-10-20T12:42:37.272Z,29.20
2023-10-20T12:45:10.158Z,32.57
2023-10-20T12:47:38.200Z,38.70
2023-10-20T12:50:07.687Z,30.03
2023-10-20T12:52:35.823Z,29.53
2023-10-20T12:55:06.897Z,28.13
2023-10-20T12:57:35.072Z,33.97
2023-10-20T13:00:02.994Z,29.77
2023-10-20T13:02:32.459Z,33.50
2023-10-20T13:05:04.786Z,36.03
2023-10-20T13:07:32.651Z,35.07
2023-10-20T13:10:04.851Z,24.43
2023-10-20T13:12:33.045Z,33.57
2023-10-20T13:15:02.777Z,37.43
2023-10-20T13:17:34.590Z,32.70
2023-10-20T13:20:03.134Z,33.00
2023-10-20T13:22:31.636Z,33.70
2023-10-20T13:24:59.522Z,37.33
2023-10-20T13:27:27.425Z,35.13
2023-10-20T13:29:55.382Z,30.03
2023-10-20T13:32:24.683Z,29.37
2023-10-20T13:34:59.570Z,26.47
2023-10-20T13:37:29.178Z,28.60
2023-10-20T13:39:58.896Z,28.70
2023-10-20T13:42:28.271Z,27.10
2023-10-20T13:44:56.493Z,30.57
2023-10-20T13:47:25.466Z,24.03
2023-10-20T13:49:58.008Z,26.57
2023-10-20T13:52:26.092Z,27.27
2023-10-20T13:54:54.301Z,24.93
2023-10-20T13:57:22.362Z,25.10
2023-10-20T13:59:50.407Z,25.93
2023-10-20T14:02:19.241Z,27.17
2023-10-20T14:04:48.579Z,23.40
2023-10-20T14:07:18.013Z,23.13
2023-10-20T14:09:46.369Z,22.03
2023-10-20T14:12:14.359Z,25.40
2023-10-20T14:14:44.027Z,26.30
2023-10-20T14:17:11.952Z,27.73
2023-10-20T14:19:40.134Z,24.93
2023-10-20T14:22:08.223Z,20.37
2023-10-20T14:24:37.755Z,27.10
2023-10-20T14:27:05.903Z,22.37
2023-10-20T14:29:34.149Z,24.73
2023-10-20T14:32:03.276Z,28.53
2023-10-20T14:34:31.515Z,21.60
2023-10-20T14:36:59.651Z,20.00
2023-10-20T14:39:27.787Z,22.30
2023-10-20T14:41:57.150Z,26.13
2023-10-20T14:44:25.177Z,18.13
2023-10-20T14:46:53.151Z,19.63
2023-10-20T14:49:21.179Z,17.83
2023-10-20T14:51:49.175Z,20.53
2023-10-20T14:54:17.233Z,21.30
2023-10-20T14:56:45.343Z,19.47
2023-10-20T14:59:14.798Z,19.70
2023-10-20T15:01:42.719Z,19.13
2023-10-20T15:04:26.571Z,19.00
2023-10-20T15:06:57.942Z,19.57
2023-10-20T15:09:25.887Z,21.07
2023-10-20T15:11:54.019Z,22.70
2023-10-20T15:14:23.583Z,20.60
2023-10-20T15:16:51.789Z,19.73
2023-10-20T15:19:19.675Z,17.80
2023-10-20T15:21:48.425Z,18.37
2023-10-20T15:24:16.473Z,17.53
2023-10-20T15:26:46.596Z,20.93
2023-10-20T15:29:15.203Z,19.33
2023-10-20T15:31:44.718Z,21.27
2023-10-20T15:34:12.824Z,23.33
2023-10-20T15:36:47.595Z,19.23
2023-10-20T15:39:15.915Z,19.53
2023-10-20T15:41:43.948Z,19.63
2023-10-20T15:44:11.977Z,18.53
2023-10-20T15:46:40.616Z,27.43
2023-10-20T15:49:10.119Z,20.40
2023-10-20T15:51:38.034Z,20.57
2023-10-20T15:54:06.052Z,21.57
2023-10-20T15:56:34.081Z,20.43
2023-10-20T15:59:01.914Z,22.00
2023-10-20T16:01:29.752Z,20.77
2023-10-20T16:03:57.801Z,16.83
2023-10-20T16:06:27.211Z,22.77
2023-10-20T16:08:55.342Z,26.20
2023-10-20T16:11:23.182Z,26.63
2023-10-20T16:13:51.073Z,27.27
2023-10-20T16:16:24.695Z,28.97
2023-10-20T16:18:52.761Z,23.10
2023-10-20T16:21:20.823Z,24.57
2023-10-20T16:23:50.166Z,36.57
2023-10-20T16:26:18.081Z,43.40
2023-10-20T16:28:45.959Z,42.63
2023-10-20T16:31:13.841Z,43.53
2023-10-20T16:33:41.891Z,35.73
2023-10-20T16:36:10.014Z,37.63
2023-10-20T16:38:37.934Z,38.27
2023-10-20T16:41:07.309Z,30.67
2023-10-20T16:43:35.146Z,28.33
2023-10-20T16:46:05.689Z,31.03
2023-10-20T16:48:34.779Z,32.17
2023-10-20T16:51:03.242Z,29.13
2023-10-20T16:53:31.328Z,25.77
2023-10-20T16:55:59.794Z,26.93
2023-10-20T16:58:29.648Z,30.80
2023-10-20T17:01:02.536Z,29.10
2023-10-20T17:03:30.599Z,29.07
2023-10-20T17:05:58.912Z,28.77
2023-10-20T17:08:28.503Z,33.30
2023-10-20T17:10:56.505Z,31.13
2023-10-20T17:13:25.632Z,33.43
2023-10-20T17:15:54.881Z,26.23
2023-10-20T17:18:23.041Z,23.53
2023-10-20T17:20:52.826Z,20.43
2023-10-20T17:23:20.773Z,20.40
2023-10-20T17:25:49.120Z,24.50
2023-10-20T17:28:16.997Z,25.53
2023-10-20T17:30:44.932Z,27.40
2023-10-20T17:33:14.286Z,22.77
2023-10-20T17:35:42.172Z,29.43
2023-10-20T17:38:10.563Z,26.80
2023-10-20T17:40:38.413Z,24.13
2023-10-20T17:43:06.292Z,24.80
2023-10-20T17:45:34.234Z,20.00
2023-10-20T17:48:02.896Z,24.00
2023-10-20T17:53:17.720Z,12.63
2023-10-20T17:55:46.102Z,13.17
2023-10-20T17:58:13.969Z,6.93
2023-10-20T18:00:42.245Z,7.67
2023-10-20T18:03:12.059Z,3.47
2023-10-20T18:05:40.252Z,4.57
2023-10-20T18:08:08.640Z,4.07
2023-10-20T18:10:38.184Z,5.40
2023-10-20T18:13:06.289Z,4.63
2023-10-20T18:15:36.634Z,4.30
2023-10-20T18:18:05.022Z,3.67
2023-10-20T18:20:33.001Z,7.50
2023-10-20T18:23:01.098Z,6.37
2023-10-20T18:25:30.061Z,6.27
2023-10-20T18:27:59.301Z,3.50
2023-10-20T18:30:28.029Z,5.40
2023-10-20T18:32:55.974Z,7.57
2023-10-20T18:35:23.822Z,4.57
2023-10-20T18:37:51.705Z,4.97
2023-10-20T18:40:19.954Z,6.13
2023-10-20T18:42:48.935Z,6.43
2023-10-20T18:45:18.564Z,5.37
2023-10-20T18:47:46.507Z,7.33
2023-10-20T18:50:14.431Z,8.00
2023-10-20T18:52:42.296Z,8.83
2023-10-20T18:55:11.092Z,8.73
2023-10-20T18:57:38.946Z,9.40
2023-10-20T19:00:08.498Z,8.20
2023-10-20T19:02:37.818Z,7.97
2023-10-20T19:05:07.372Z,10.17
2023-10-20T19:07:35.234Z,10.03
2023-10-20T19:10:04.158Z,7.83
2023-10-20T19:12:31.981Z,10.83
2023-10-20T19:15:00.074Z,9.90
2023-10-20T19:17:28.069Z,9.57
2023-10-20T19:19:57.770Z,9.37
2023-10-20T19:22:25.634Z,9.03
2023-10-20T19:24:53.474Z,9.60
2023-10-20T19:27:21.292Z,10.17
2023-10-20T19:29:49.102Z,12.03
2023-10-20T19:32:16.914Z,9.97
2023-10-20T19:34:44.792Z,11.10
2023-10-20T19:37:14.037Z,9.63
2023-10-20T19:39:41.863Z,8.90
2023-10-20T19:42:10.524Z,8.73
2023-10-20T19:44:38.494Z,10.53
2023-10-20T19:47:07.027Z,8.87
2023-10-20T19:49:35.086Z,10.10
2023-10-20T19:52:03.087Z,9.40
2023-10-20T19:54:32.354Z,9.17
2023-10-20T19:57:00.246Z,9.93
2023-10-20T19:59:28.074Z,8.50
2023-10-20T20:01:56.225Z,7.97
2023-10-20T20:04:25.750Z,11.77
2023-10-20T20:06:53.857Z,10.73
2023-10-20T20:09:21.683Z,8.90
2023-10-20T20:11:50.975Z,9.93
2023-10-20T20:14:18.815Z,10.13
2023-10-20T20:16:49.927Z,8.83
2023-10-20T20:19:17.834Z,7.87
2023-10-20T20:21:46.045Z,8.80
2023-10-20T20:24:13.954Z,8.47
2023-10-20T20:26:41.844Z,8.13
2023-10-20T20:29:11.044Z,8.20
2023-10-20T20:31:38.904Z,10.20
2023-10-20T20:34:06.773Z,9.90
2023-10-20T20:36:34.674Z,9.57
2023-10-20T20:39:02.764Z,8.33
2023-10-20T20:41:30.665Z,8.37
2023-10-20T20:43:59.075Z,10.13
2023-10-20T20:46:28.558Z,9.87
2023-10-20T20:48:56.622Z,12.40
2023-10-20T20:51:24.512Z,7.57
2023-10-20T20:53:53.431Z,9.27
2023-10-20T20:56:21.410Z,9.97
2023-10-20T20:58:49.248Z,7.93
2023-10-20T21:01:17.227Z,7.83
2023-10-20T21:03:46.509Z,8.23
2023-10-20T21:06:14.516Z,5.10
2023-10-20T21:08:42.469Z,5.70
2023-10-20T21:11:11.247Z,7.47
2023-10-20T21:13:40.159Z,7.43
2023-10-20T21:16:10.246Z,6.50
2023-10-20T21:18:38.586Z,6.37
2023-10-20T21:21:14.069Z,8.30
2023-10-20T21:23:42.155Z,7.67
2023-10-20T21:26:10.228Z,5.03
2023-10-20T21:28:39.520Z,5.27
2023-10-20T21:31:07.940Z,8.47
2023-10-20T21:33:36.090Z,6.93
2023-10-20T21:36:04.300Z,8.27
2023-10-20T21:38:33.647Z,9.77
2023-10-20T21:41:01.566Z,8.20
2023-10-20T21:43:29.841Z,5.60
2023-10-20T21:45:58.546Z,8.40
2023-10-20T21:48:27.330Z,8.27
2023-10-20T21:50:56.185Z,7.27
2023-10-20T21:53:24.123Z,7.53
2023-10-20T21:56:01.184Z,5.53
2023-10-20T21:58:29.315Z,6.53
2023-10-20T22:00:57.300Z,7.37
2023-10-20T22:03:25.663Z,5.93
2023-10-20T22:05:53.876Z,5.70
2023-10-20T22:08:21.952Z,5.27
2023-10-20T22:10:49.900Z,5.73
2023-10-20T22:13:19.299Z,7.90
2023-10-20T22:15:47.718Z,7.50
2023-10-20T22:18:15.871Z,6.10
2023-10-20T22:20:44.434Z,6.40
2023-10-20T22:23:12.629Z,6.17
2023-10-20T22:25:40.763Z,8.20
2023-10-20T22:28:08.641Z,7.27
2023-10-20T22:30:38.211Z,6.53
2023-10-20T22:33:06.267Z,7.50
2023-10-20T22:35:34.188Z,6.83
2023-10-20T22:38:02.083Z,8.33
2023-10-20T22:40:29.968Z,5.33
2023-10-20T22:42:57.834Z,7.33
2023-10-20T22:45:25.831Z,7.30
2023-10-20T22:47:55.242Z,7.53
2023-10-20T22:50:23.193Z,8.07
2023-10-20T22:52:51.081Z,6.33
2023-10-20T22:55:19.034Z,7.60
2023-10-20T22:57:46.879Z,8.90
2023-10-20T23:00:16.115Z,9.83
2023-10-20T23:02:44.801Z,8.47
2023-10-20T23:05:14.638Z,6.77
2023-10-20T23:07:42.504Z,6.47
2023-10-20T23:10:11.035Z,7.27
2023-10-20T23:12:38.880Z,8.83
2023-10-20T23:15:08.316Z,7.17
2023-10-20T23:17:36.258Z,7.67
2023-10-20T23:20:04.711Z,6.47
2023-10-20T23:22:33.938Z,8.27
2023-10-20T23:25:01.773Z,5.43
2023-10-20T23:27:29.647Z,7.33
2023-10-20T23:29:57.525Z,7.13
2023-10-20T23:32:25.418Z,6.27
2023-10-20T23:34:54.585Z,5.33
2023-10-20T23:37:22.866Z,7.47
2023-10-20T23:39:52.119Z,4.97
2023-10-20T23:42:19.982Z,6.77
2023-10-20T23:44:48.104Z,5.07
2023-10-20T23:47:16.041Z,6.83
2023-10-20T23:49:43.975Z,8.50
2023-10-20T23:52:11.861Z,6.17
2023-10-20T23:54:39.720Z,8.10
2023-10-20T23:57:09.121Z,6.13
2023-10-20T23:59:37.759Z,6.40
